Washington, District of Columbia
Traffic Map
Current Weather Conditions
Washington, District of Columbia
Scattered Clouds
Scattered Clouds
35°
Feels Like: 26°
Wind Chill: 26° Ceiling: Unl
Heat Index: 35° Visibility: 10mi
Dew Point: Wind: 13mph
Humidity: 30% Direction: 260° (W)
Pressure: 29.79in Gusts: 0mph
Raw Report DataKDCA 131952Z 26011KT 10SM SCT250 02/M14 A2979 RMK AO2 SLP086 T00171144
Traffic Incident Summary
Active as of:
Severity:
Category:
InformationThere was an issue retrieving the traffic information for this location. Please try a different location or try again shortly.
Advertisements